Time;durP1;ratioP1;P1;durP2;ratioP2;P2;SDS_P1;SDS_P2;PMS_P1;PMS_P2;Temp;Humidity;BMP_temperature;BMP_pressure;BME280_temperature;BME280_humidity;BME280_pressure;Samples;Min_cycle;Max_cycle;Signal;HPM_P1;HPM_P2
2022/04/24 00:00:19;;;;;;;53.22;27.10;;;;;;;4.17;100.00;98836.97;5122262;28;20054;-50
2022/04/24 00:03:04;;;;;;;52.35;27.25;;;;;;;4.26;100.00;98831.66;5123240;28;20708;-50
2022/04/24 00:05:49;;;;;;;44.03;25.27;;;;;;;4.36;100.00;98827.19;5122740;27;20208;-50
2022/04/24 00:08:33;;;;;;;39.78;23.33;;;;;;;4.47;100.00;98825.28;5126500;27;20051;-50
2022/04/24 00:11:18;;;;;;;32.65;20.45;;;;;;;4.54;100.00;98826.88;5126000;27;20131;-50
2022/04/24 00:14:07;;;;;;;32.58;19.33;;;;;;;4.60;100.00;98831.97;5126715;27;20051;-50
2022/04/24 00:16:52;;;;;;;31.33;17.40;;;;;;;4.68;100.00;98819.75;5126506;27;20043;-50
2022/04/24 00:19:37;;;;;;;27.65;16.48;;;;;;;4.75;100.00;98827.44;5126464;27;20050;-50
2022/04/24 00:22:21;;;;;;;32.83;19.23;;;;;;;4.73;100.00;98821.41;5126425;27;20047;-51
2022/04/24 00:25:06;;;;;;;30.90;17.70;;;;;;;4.68;100.00;98817.16;5125714;27;20092;-50
2022/04/24 00:27:50;;;;;;;28.30;17.10;;;;;;;4.66;100.00;98816.31;5126639;27;20055;-50
2022/04/24 00:30:35;;;;;;;30.70;18.35;;;;;;;4.57;100.00;98824.25;5125673;27;20051;-50
2022/04/24 00:33:20;;;;;;;29.98;17.58;;;;;;;4.47;100.00;98806.28;5126705;27;20055;-50
2022/04/24 00:36:04;;;;;;;28.38;17.55;;;;;;;4.51;100.00;98813.13;5126280;27;20047;-50
2022/04/24 00:38:50;;;;;;;26.55;17.63;;;;;;;4.44;100.00;98804.59;5126909;27;20040;-50
2022/04/24 00:41:34;;;;;;;28.95;18.52;;;;;;;4.49;100.00;98817.50;5125552;27;20043;-50
2022/04/24 00:44:19;;;;;;;29.02;16.77;;;;;;;4.43;100.00;98811.50;5125591;27;20453;-50
2022/04/24 00:47:29;;;;;;;28.80;17.75;;;;;;;4.32;100.00;98805.66;5125900;27;20055;-50
2022/04/24 00:50:14;;;;;;;27.15;17.50;;;;;;;4.29;100.00;98805.69;5126091;27;20489;-50
2022/04/24 00:52:58;;;;;;;33.90;17.67;;;;;;;4.22;100.00;98804.06;5125551;27;20619;-51
2022/04/24 00:55:43;;;;;;;30.63;17.85;;;;;;;4.19;100.00;98798.91;5109015;27;20043;-50
2022/04/24 00:58:28;;;;;;;36.33;19.38;;;;;;;4.12;100.00;98805.94;5126164;27;20141;-51
2022/04/24 01:01:13;;;;;;;31.70;17.75;;;;;;;4.03;100.00;98798.31;5125060;27;20732;-50
2022/04/24 01:04:00;;;;;;;31.67;19.98;;;;;;;3.91;100.00;98801.06;5126698;27;20053;-50
2022/04/24 01:06:45;;;;;;;30.50;19.08;;;;;;;3.88;100.00;98790.75;5124751;27;20039;-50
2022/04/24 01:09:31;;;;;;;35.05;19.42;;;;;;;3.88;100.00;98788.16;5125665;27;20051;-50
2022/04/24 01:12:16;;;;;;;31.58;20.65;;;;;;;3.95;100.00;98787.19;5125247;27;20035;-50
2022/04/24 01:15:01;;;;;;;32.63;18.95;;;;;;;3.96;100.00;98792.38;5125333;27;20046;-50
2022/04/24 01:17:45;;;;;;;27.90;17.27;;;;;;;3.95;100.00;98798.41;5125353;27;20062;-51
2022/04/24 01:20:30;;;;;;;31.05;18.23;;;;;;;3.91;100.00;98795.91;5125380;27;20100;-50
2022/04/24 01:23:14;;;;;;;30.58;18.05;;;;;;;3.89;100.00;98790.72;5125486;27;20049;-50
2022/04/24 01:25:58;;;;;;;32.60;20.13;;;;;;;3.87;100.00;98783.88;5125183;27;20039;-50
2022/04/24 01:28:43;;;;;;;27.55;17.52;;;;;;;3.89;100.00;98789.88;5123507;27;20051;-50
2022/04/24 01:31:28;;;;;;;30.85;17.63;;;;;;;3.89;100.00;98787.28;5124739;27;20043;-50
2022/04/24 01:34:13;;;;;;;32.08;18.88;;;;;;;3.87;100.00;98786.47;5125992;27;20043;-50
2022/04/24 01:36:57;;;;;;;30.90;18.60;;;;;;;3.73;100.00;98779.72;5124535;27;20043;-50
2022/04/24 01:39:42;;;;;;;33.15;18.23;;;;;;;3.66;100.00;98775.50;5124405;27;20055;-50
2022/04/24 01:42:27;;;;;;;31.05;18.98;;;;;;;3.71;100.00;98775.47;5124146;27;20051;-50
2022/04/24 01:45:11;;;;;;;33.95;19.33;;;;;;;3.68;100.00;98770.31;5124877;27;20043;-50
2022/04/24 01:47:56;;;;;;;29.95;18.98;;;;;;;3.75;100.00;98774.53;5124367;27;20047;-50
2022/04/24 01:50:40;;;;;;;33.63;20.13;;;;;;;3.64;100.00;98781.56;5124761;27;20054;-50
2022/04/24 01:53:24;;;;;;;32.38;19.10;;;;;;;3.73;100.00;98771.94;5125379;27;20043;-50
2022/04/24 01:56:10;;;;;;;32.25;18.25;;;;;;;3.72;100.00;98771.97;5123644;27;20062;-50
2022/04/24 01:58:54;;;;;;;31.42;17.40;;;;;;;3.80;100.00;98774.44;5125620;27;20051;-50
2022/04/24 02:01:39;;;;;;;28.20;16.67;;;;;;;3.75;100.00;98771.94;5124046;27;20841;-50
2022/04/24 02:04:23;;;;;;;28.02;17.70;;;;;;;3.80;100.00;98771.88;5124765;27;20074;-49
2022/04/24 02:07:08;;;;;;;25.60;16.52;;;;;;;3.82;100.00;98772.72;5123729;27;20055;-50
2022/04/24 02:09:52;;;;;;;31.27;17.45;;;;;;;3.82;100.00;98770.97;5123780;27;20051;-51
2022/04/24 02:12:40;;;;;;;33.30;17.17;;;;;;;3.80;100.00;98777.03;5123356;27;20050;-50
2022/04/24 02:15:24;;;;;;;29.55;18.50;;;;;;;3.78;100.00;98766.72;5124420;27;20043;-50
2022/04/24 02:18:09;;;;;;;26.17;15.90;;;;;;;3.82;100.00;98772.72;5123946;27;20059;-51
2022/04/24 02:20:53;;;;;;;27.42;15.55;;;;;;;3.79;100.00;98773.59;5100620;27;20052;-51
2022/04/24 02:23:38;;;;;;;25.55;14.95;;;;;;;3.68;100.00;98770.31;5124236;27;20194;-50
2022/04/24 02:26:22;;;;;;;32.17;17.67;;;;;;;3.57;100.00;98762.66;5123737;27;20059;-50
2022/04/24 02:29:07;;;;;;;27.42;16.35;;;;;;;3.60;100.00;98765.22;5122669;27;20055;-50
2022/04/24 02:31:52;;;;;;;29.20;15.90;;;;;;;3.65;100.00;98757.41;5123640;27;20066;-51
2022/04/24 02:34:36;;;;;;;23.27;15.18;;;;;;;3.66;100.00;98762.56;5124412;27;20477;-50
2022/04/24 02:37:22;;;;;;;33.35;16.25;;;;;;;3.70;100.00;98748.69;5123003;27;20126;-50
2022/04/24 02:40:10;;;;;;;30.85;17.40;;;;;;;3.84;100.00;98761.44;5122799;27;20047;-50
2022/04/24 02:42:54;;;;;;;22.65;15.52;;;;;;;3.92;100.00;98732.84;5123594;27;20432;-50
2022/04/24 02:45:40;;;;;;;24.60;15.65;;;;;;;4.03;100.00;98738.72;5123028;27;20043;-50
2022/04/24 02:48:27;;;;;;;23.23;14.75;;;;;;;4.14;100.00;98736.78;5123813;27;20046;-50
2022/04/24 02:51:12;;;;;;;24.05;14.20;;;;;;;4.30;100.00;98733.97;5122608;27;20039;-50
2022/04/24 02:53:56;;;;;;;21.85;13.48;;;;;;;4.39;100.00;98745.03;5123831;27;20047;-50
2022/04/24 02:56:41;;;;;;;22.00;14.00;;;;;;;4.46;100.00;98735.41;5122755;27;20096;-51
2022/04/24 02:59:25;;;;;;;21.88;13.65;;;;;;;4.44;100.00;98734.56;5123741;27;20043;-50
2022/04/24 03:02:14;;;;;;;21.55;13.55;;;;;;;4.42;100.00;98733.75;5123456;27;20051;-51
2022/04/24 03:04:58;;;;;;;20.60;12.70;;;;;;;4.39;100.00;98726.03;5123512;27;20053;-51
2022/04/24 03:07:43;;;;;;;23.65;14.20;;;;;;;4.36;100.00;98723.50;5123405;27;20050;-50
2022/04/24 03:10:29;;;;;;;22.15;14.05;;;;;;;4.36;100.00;98718.31;5122465;27;20438;-50
2022/04/24 03:13:14;;;;;;;25.05;14.70;;;;;;;4.31;100.00;98717.53;5123082;27;20047;-50
2022/04/24 03:15:58;;;;;;;26.30;16.25;;;;;;;4.22;100.00;98708.16;5122651;27;20736;-50
2022/04/24 03:18:43;;;;;;;28.48;16.42;;;;;;;4.17;100.00;98713.44;5122374;27;20051;-51
2022/04/24 03:21:27;;;;;;;28.20;15.63;;;;;;;4.14;100.00;98704.84;5122590;27;20051;-50
2022/04/24 03:24:11;;;;;;;27.63;16.70;;;;;;;4.05;100.00;98702.41;5123810;27;21562;-50
2022/04/24 03:26:56;;;;;;;26.02;16.27;;;;;;;4.11;100.00;98704.91;5122645;27;20047;-51
2022/04/24 03:29:40;;;;;;;27.38;17.65;;;;;;;3.99;100.00;98698.16;5122731;27;20074;-51
2022/04/24 03:32:25;;;;;;;29.55;17.50;;;;;;;4.10;100.00;98696.28;5121953;27;20047;-51
2022/04/24 03:35:11;;;;;;;25.58;16.00;;;;;;;4.03;100.00;98691.19;5122207;28;20050;-51
2022/04/24 03:37:55;;;;;;;26.33;15.63;;;;;;;3.98;100.00;98689.53;5122732;28;20054;-50
2022/04/24 03:40:39;;;;;;;23.52;14.50;;;;;;;4.11;100.00;98690.19;5122381;27;20051;-50
2022/04/24 03:43:24;;;;;;;25.73;15.02;;;;;;;4.15;100.00;98697.03;5126816;27;20043;-51
2022/04/24 03:46:10;;;;;;;24.73;15.35;;;;;;;4.18;100.00;98685.75;5126656;27;20043;-51
2022/04/24 03:48:54;;;;;;;23.67;14.32;;;;;;;4.29;100.00;98694.22;5127136;27;20039;-51
2022/04/24 03:51:38;;;;;;;25.58;14.88;;;;;;;4.35;100.00;98701.03;5126470;27;20838;-51
2022/04/24 03:54:23;;;;;;;23.13;13.70;;;;;;;4.41;100.00;98696.59;5127372;27;20142;-50
2022/04/24 03:57:08;;;;;;;22.58;15.93;;;;;;;4.47;100.00;98693.03;5126437;27;20116;-51
2022/04/24 03:59:52;;;;;;;21.50;14.68;;;;;;;4.52;100.00;98693.81;5126644;27;20055;-51
2022/04/24 04:02:48;;;;;;;24.45;14.95;;;;;;;4.59;100.00;98691.97;5127248;27;20429;-51
2022/04/24 04:05:36;;;;;;;26.38;16.08;;;;;;;4.55;100.00;98698.94;5126370;27;20039;-51
2022/04/24 04:08:20;;;;;;;28.02;17.48;;;;;;;4.42;100.00;98694.88;5126935;27;20043;-51
2022/04/24 04:11:05;;;;;;;28.27;17.08;;;;;;;4.44;100.00;98690.50;5126012;27;20339;-50
2022/04/24 04:13:50;;;;;;;26.52;17.45;;;;;;;4.30;100.00;98692.50;5126108;27;20489;-51
2022/04/24 04:16:34;;;;;;;32.10;18.30;;;;;;;4.35;100.00;98686.31;5126584;27;20069;-51
2022/04/24 04:19:19;;;;;;;26.80;16.40;;;;;;;4.29;100.00;98680.38;5126894;27;20039;-51
2022/04/24 04:22:04;;;;;;;31.15;17.55;;;;;;;4.31;100.00;98678.63;5125027;27;20044;-51
2022/04/24 04:24:49;;;;;;;26.98;17.02;;;;;;;4.51;100.00;98679.13;5126918;27;20066;-51
2022/04/24 04:27:33;;;;;;;22.55;14.45;;;;;;;4.78;100.00;98669.97;5125938;27;20047;-50
2022/04/24 04:30:18;;;;;;;30.77;16.85;;;;;;;5.12;100.00;98698.69;5126051;27;20066;-50
2022/04/24 04:33:03;;;;;;;23.27;15.07;;;;;;;5.43;100.00;98708.44;5125665;27;20400;-50
2022/04/24 04:35:48;;;;;;;27.35;17.08;;;;;;;5.64;100.00;98712.28;5126201;27;20050;-51
2022/04/24 04:38:32;;;;;;;53.70;28.48;;;;;;;5.65;100.00;98705.34;5126006;27;20089;-50
2022/04/24 04:41:16;;;;;;;31.70;18.77;;;;;;;5.73;100.00;98706.91;5126339;27;20051;-50
2022/04/24 04:44:00;;;;;;;27.00;16.20;;;;;;;6.31;100.00;98700.31;5125273;27;20145;-51
2022/04/24 04:46:45;;;;;;;29.23;15.80;;;;;;;7.13;100.00;98708.56;5124963;27;20043;-51
2022/04/24 04:49:29;;;;;;;30.23;18.08;;;;;;;7.82;100.00;98711.69;5125784;27;20434;-51
2022/04/24 04:52:14;;;;;;;31.60;17.90;;;;;;;8.36;100.00;98713.44;5124641;27;20051;-50
2022/04/24 04:54:59;;;;;;;23.67;14.05;;;;;;;8.22;100.00;98715.63;5126585;27;20051;-51
2022/04/24 04:57:44;;;;;;;22.23;13.25;;;;;;;8.63;100.00;98716.91;5125408;27;20050;-51
2022/04/24 05:00:29;;;;;;;22.25;13.20;;;;;;;9.89;100.00;98725.34;5126195;27;20051;-51
2022/04/24 05:03:14;;;;;;;31.60;16.98;;;;;;;10.40;100.00;98732.00;5124451;27;20072;-51
2022/04/24 05:05:58;;;;;;;21.73;14.18;;;;;;;10.71;100.00;98729.81;5125813;27;20043;-51
2022/04/24 05:08:43;;;;;;;21.75;13.52;;;;;;;10.50;93.35;98736.81;5126194;27;20055;-51
2022/04/24 05:11:27;;;;;;;17.92;11.38;;;;;;;11.06;98.30;98729.22;5125354;27;20476;-51
2022/04/24 05:14:12;;;;;;;17.98;11.85;;;;;;;11.76;94.76;98731.25;5124090;27;20355;-51
2022/04/24 05:16:59;;;;;;;18.38;11.55;;;;;;;11.91;89.20;98745.47;5125710;27;20059;-50
2022/04/24 05:19:45;;;;;;;15.43;10.00;;;;;;;11.95;89.84;98739.13;5110125;27;20043;-51
2022/04/24 05:22:29;;;;;;;18.08;10.52;;;;;;;12.21;85.70;98729.16;5125390;27;20047;-51
2022/04/24 05:25:14;;;;;;;16.63;11.25;;;;;;;11.74;83.17;98734.88;5125103;27;20179;-51
2022/04/24 05:28:00;;;;;;;17.48;11.73;;;;;;;11.55;81.17;98742.75;5125295;27;20074;-51
2022/04/24 05:30:45;;;;;;;15.50;10.82;;;;;;;11.52;83.27;98738.50;5125088;27;20330;-51
2022/04/24 05:33:29;;;;;;;15.88;10.65;;;;;;;12.42;84.06;98738.63;5125730;27;20043;-51
2022/04/24 05:36:14;;;;;;;14.02;9.80;;;;;;;12.71;80.38;98731.06;5124471;27;20706;-51
2022/04/24 05:38:58;;;;;;;20.33;10.70;;;;;;;12.11;79.65;98724.34;5124989;27;20054;-51
2022/04/24 05:41:43;;;;;;;16.17;9.23;;;;;;;12.99;80.45;98730.50;5124163;27;20509;-51
2022/04/24 05:44:27;;;;;;;18.52;9.98;;;;;;;12.89;75.80;98722.22;5124650;27;20391;-51
2022/04/24 05:47:11;;;;;;;14.73;8.63;;;;;;;13.75;77.10;98713.28;5124350;27;20073;-51
2022/04/24 05:49:55;;;;;;;15.23;9.85;;;;;;;13.46;74.29;98714.03;5125222;27;20112;-52
2022/04/24 05:52:41;;;;;;;13.80;8.85;;;;;;;13.49;73.93;98706.81;5124338;27;20039;-51
2022/04/24 05:55:25;;;;;;;14.00;8.45;;;;;;;13.51;76.54;98698.81;5125453;27;20439;-51
2022/04/24 05:58:10;;;;;;;12.70;8.68;;;;;;;13.02;72.55;98697.00;5124451;27;20035;-50
2022/04/24 06:00:54;;;;;;;13.02;8.07;;;;;;;13.31;76.28;98692.03;5123862;27;20081;-51
2022/04/24 06:03:40;;;;;;;11.00;7.10;;;;;;;13.65;73.38;98683.16;5122685;27;20100;-52
2022/04/24 06:06:24;;;;;;;10.32;6.53;;;;;;;13.15;73.49;98684.06;5121295;27;20047;-52
2022/04/24 06:09:09;;;;;;;11.85;6.70;;;;;;;13.55;71.66;98677.56;5121740;27;20469;-52
2022/04/24 06:11:58;;;;;;;9.50;6.07;;;;;;;13.97;71.11;98683.97;5105550;27;20043;-52
2022/04/24 06:14:42;;;;;;;9.60;6.45;;;;;;;13.55;72.11;98685.44;5122523;27;20039;-51
2022/04/24 06:17:26;;;;;;;10.50;5.70;;;;;;;13.92;71.89;98686.00;5120972;27;20035;-52
2022/04/24 06:20:11;;;;;;;8.82;6.03;;;;;;;14.31;67.48;98681.19;5121909;27;20062;-52
2022/04/24 06:23:00;;;;;;;9.50;5.53;;;;;;;14.65;66.39;98683.56;5121153;27;20043;-51
2022/04/24 06:25:45;;;;;;;11.23;5.60;;;;;;;14.88;64.75;98682.22;5121656;27;20464;-51
2022/04/24 06:28:29;;;;;;;11.20;6.32;;;;;;;15.42;64.36;98676.25;5121152;27;20362;-53
2022/04/24 06:31:14;;;;;;;11.27;7.57;;;;;;;14.57;65.54;98677.06;5121446;27;20047;-51
2022/04/24 06:33:58;;;;;;;11.43;6.50;;;;;;;15.35;64.56;98681.06;5105086;27;20142;-51
2022/04/24 06:36:43;;;;;;;13.48;5.82;;;;;;;15.98;63.27;98681.53;5121471;27;20078;-52
2022/04/24 06:39:27;;;;;;;11.85;7.28;;;;;;;16.10;61.97;98675.44;5121484;27;20092;-53
2022/04/24 06:42:12;;;;;;;9.60;5.50;;;;;;;16.01;61.62;98683.97;5121011;27;20468;-51
2022/04/24 06:44:56;;;;;;;12.38;5.45;;;;;;;16.24;60.73;98674.53;5121100;27;20157;-52
2022/04/24 06:47:42;;;;;;;9.13;5.72;;;;;;;16.64;60.11;98675.38;5122988;27;20043;-52
2022/04/24 06:50:29;;;;;;;9.25;5.95;;;;;;;16.85;57.28;98680.19;5124048;27;20043;-53
2022/04/24 06:53:17;;;;;;;9.73;6.00;;;;;;;16.99;60.30;98664.19;5123322;27;20051;-52
2022/04/24 06:56:02;;;;;;;9.25;5.35;;;;;;;17.36;57.39;98657.19;5123663;27;20456;-52
2022/04/24 06:58:47;;;;;;;10.20;5.75;;;;;;;16.31;57.91;98650.28;5123466;27;20484;-53
2022/04/24 07:01:32;;;;;;;6.72;5.13;;;;;;;16.94;58.53;98640.72;5120884;27;20046;-52
2022/04/24 07:04:17;;;;;;;7.88;5.47;;;;;;;16.79;57.69;98632.03;5122961;27;20047;-52
2022/04/24 07:07:01;;;;;;;8.77;5.38;;;;;;;16.82;58.15;98634.47;5123749;27;20051;-52
2022/04/24 07:09:46;;;;;;;7.43;5.03;;;;;;;17.05;57.25;98626.75;5123304;27;20042;-53
2022/04/24 07:12:30;;;;;;;6.90;4.70;;;;;;;16.54;58.57;98624.94;5123059;27;20051;-52
2022/04/24 07:15:17;;;;;;;8.07;5.45;;;;;;;17.01;58.49;98619.97;5120932;27;20299;-53
2022/04/24 07:18:02;;;;;;;8.30;4.72;;;;;;;16.57;58.31;98608.88;5122523;27;20047;-52
2022/04/24 07:20:47;;;;;;;6.93;4.40;;;;;;;16.87;56.42;98605.09;5122165;27;20474;-53
2022/04/24 07:23:31;;;;;;;15.60;4.13;;;;;;;16.71;53.83;98602.63;5122246;27;20043;-51
2022/04/24 07:26:16;;;;;;;5.88;3.97;;;;;;;17.00;54.24;98599.78;5123643;27;20058;-52
2022/04/24 07:29:00;;;;;;;4.60;3.38;;;;;;;16.79;55.15;98610.88;5122156;27;20517;-51
2022/04/24 07:31:44;;;;;;;5.18;3.83;;;;;;;16.99;54.64;98603.38;5113133;27;20043;-51
2022/04/24 07:34:29;;;;;;;9.93;3.85;;;;;;;17.61;53.63;98605.94;5123035;27;20042;-51
2022/04/24 07:37:14;;;;;;;6.65;4.40;;;;;;;17.52;51.43;98612.78;5121422;27;20381;-52
2022/04/24 07:39:58;;;;;;;6.13;3.53;;;;;;;17.64;51.51;98611.03;5122684;28;20043;-52
2022/04/24 07:42:51;;;;;;;4.88;3.33;;;;;;;18.13;51.45;98598.63;5123249;28;20039;-51
2022/04/24 07:45:39;;;;;;;4.10;3.28;;;;;;;18.33;48.56;98600.66;5124361;28;20048;-52
2022/04/24 07:48:25;;;;;;;5.63;3.38;;;;;;;18.71;49.64;98603.97;5123554;28;20035;-52
2022/04/24 07:51:09;;;;;;;6.70;3.90;;;;;;;18.81;48.60;98604.97;5123529;28;20039;-52
2022/04/24 07:53:54;;;;;;;6.78;3.03;;;;;;;18.58;48.10;98606.72;5124034;28;20047;-52
2022/04/24 07:56:39;;;;;;;4.88;3.40;;;;;;;19.25;50.28;98600.63;5124124;28;20143;-51
2022/04/24 07:59:23;;;;;;;5.32;3.80;;;;;;;19.36;48.11;98603.25;5124061;28;20050;-52
2022/04/24 08:02:08;;;;;;;8.32;4.53;;;;;;;18.61;48.65;98604.66;5123658;28;20138;-52
2022/04/24 08:04:53;;;;;;;7.60;4.75;;;;;;;19.31;47.54;98593.03;5124092;28;20063;-53
2022/04/24 08:07:37;;;;;;;10.48;4.80;;;;;;;19.30;46.99;98595.78;5120380;28;20124;-52
2022/04/24 08:10:23;;;;;;;6.45;4.75;;;;;;;18.94;46.86;98591.59;5119955;28;20055;-53
2022/04/24 08:13:08;;;;;;;8.15;4.32;;;;;;;19.00;46.58;98593.75;5120859;28;20039;-52
2022/04/24 08:15:54;;;;;;;4.80;4.25;;;;;;;18.79;45.91;98586.53;5121082;28;20455;-51
2022/04/24 08:18:38;;;;;;;11.00;6.28;;;;;;;18.85;46.71;98590.53;5120934;28;20126;-52
2022/04/24 08:21:23;;;;;;;9.35;5.80;;;;;;;18.97;48.30;98580.75;5120309;28;20089;-52
2022/04/24 08:24:07;;;;;;;8.90;5.47;;;;;;;18.49;48.79;98568.53;5120687;28;20584;-52
2022/04/24 08:26:52;;;;;;;10.57;6.10;;;;;;;18.37;49.50;98570.28;5121540;27;20047;-52
2022/04/24 08:29:36;;;;;;;7.40;5.45;;;;;;;18.83;46.95;98576.53;5124201;27;20568;-52
2022/04/24 08:32:24;;;;;;;8.07;5.72;;;;;;;18.72;48.43;98572.06;5123883;27;20043;-52
2022/04/24 08:35:10;;;;;;;6.20;5.05;;;;;;;18.85;47.53;98578.09;5123728;27;20579;-51
2022/04/24 08:37:55;;;;;;;6.30;5.00;;;;;;;18.50;47.60;98572.84;5124543;27;20055;-52
2022/04/24 08:40:40;;;;;;;9.40;5.15;;;;;;;18.24;48.50;98580.16;5123844;27;20389;-52
2022/04/24 08:43:25;;;;;;;10.48;4.38;;;;;;;18.53;49.03;98577.06;5122551;27;20485;-52
2022/04/24 08:46:09;;;;;;;7.45;4.95;;;;;;;17.63;48.88;98571.44;5123648;27;20043;-53
2022/04/24 08:48:54;;;;;;;8.75;4.22;;;;;;;17.72;50.45;98571.59;5124309;27;20055;-52
2022/04/24 08:51:40;;;;;;;6.65;4.80;;;;;;;17.78;48.98;98565.06;5123527;27;20051;-52
2022/04/24 08:54:27;;;;;;;5.95;4.03;;;;;;;17.97;47.41;98567.16;5124079;27;20043;-52
2022/04/24 08:57:14;;;;;;;6.32;4.18;;;;;;;17.51;47.69;98584.59;5123150;27;20051;-52
2022/04/24 09:00:00;;;;;;;5.28;4.25;;;;;;;16.77;49.64;98572.31;5123670;27;20909;-51
2022/04/24 09:02:45;;;;;;;6.47;3.50;;;;;;;16.95;50.22;98572.81;5124524;27;20560;-51
2022/04/24 09:05:30;;;;;;;4.38;3.10;;;;;;;16.93;48.83;98574.69;5125697;27;20051;-51
2022/04/24 09:08:14;;;;;;;4.60;3.58;;;;;;;17.08;49.20;98580.72;5124605;27;20096;-52
2022/04/24 09:10:59;;;;;;;6.85;4.07;;;;;;;16.99;50.33;98574.28;5125065;27;20191;-52
2022/04/24 09:16:48;;;;;;;;;;;;;;;16.94;49.96;98573.78;5124709;27;20107;-53
2022/04/24 09:19:33;;;;;;;10.60;6.95;;;;;;;16.53;51.74;98583.56;5123966;27;19923;-52
2022/04/24 09:22:18;;;;;;;13.52;6.07;;;;;;;16.43;51.53;98569.31;5122456;27;20116;-52
2022/04/24 09:25:03;;;;;;;7.68;4.53;;;;;;;16.32;53.10;98570.06;5122772;27;20043;-52
2022/04/24 09:27:53;;;;;;;8.05;5.00;;;;;;;16.00;53.81;98581.94;5121724;27;20039;-51
2022/04/24 09:30:48;;;;;;;11.25;6.32;;;;;;;16.09;54.03;98581.34;5122843;27;20115;-51
2022/04/24 09:33:41;;;;;;;13.77;9.70;;;;;;;16.13;52.86;98574.88;5121575;27;20040;-53
2022/04/24 09:36:26;;;;;;;10.00;7.40;;;;;;;16.01;54.23;98573.91;5123650;27;20070;-52
2022/04/24 09:39:10;;;;;;;7.28;5.45;;;;;;;15.95;54.70;98570.81;5121630;27;20042;-52
2022/04/24 09:42:08;;;;;;;10.57;5.55;;;;;;;15.57;54.86;98574.19;5122727;27;20130;-51
2022/04/24 09:44:53;;;;;;;11.32;5.13;;;;;;;15.54;54.74;98569.09;5122736;27;20182;-52
2022/04/24 09:47:38;;;;;;;12.05;6.65;;;;;;;15.41;55.10;98563.75;5121286;27;20047;-52
2022/04/24 09:50:23;;;;;;;9.82;6.03;;;;;;;15.59;56.02;98564.34;5085175;27;20641;-52
2022/04/24 09:53:12;;;;;;;9.85;5.90;;;;;;;15.52;56.86;98560.41;5120168;27;20039;-52
2022/04/24 09:55:59;;;;;;;8.15;6.30;;;;;;;15.17;57.81;98561.72;5119828;27;20089;-52
2022/04/24 09:58:45;;;;;;;9.70;5.07;;;;;;;15.38;57.91;98563.97;5119787;27;20081;-52
2022/04/24 10:01:29;;;;;;;6.78;4.65;;;;;;;15.42;58.04;98555.72;5120810;27;20043;-51
2022/04/24 10:04:15;;;;;;;6.85;5.20;;;;;;;15.53;58.58;98551.56;5120284;27;20047;-51
2022/04/24 10:07:00;;;;;;;8.90;4.60;;;;;;;15.67;58.35;98548.06;5102048;27;20508;-52
2022/04/24 10:09:46;;;;;;;8.20;5.40;;;;;;;15.62;59.56;98537.75;5120171;27;20112;-51
2022/04/24 10:12:31;;;;;;;10.02;4.82;;;;;;;15.60;58.65;98529.97;5119946;27;20046;-53
2022/04/24 10:15:17;;;;;;;5.28;4.03;;;;;;;15.69;58.62;98525.03;5120480;27;20874;-52
2022/04/24 10:18:37;;;;;;;8.02;5.13;;;;;;;15.96;58.02;98525.00;5120264;27;20047;-52
2022/04/24 10:22:03;;;;;;;5.35;3.97;;;;;;;15.95;55.81;98515.38;5026205;27;20062;-52
2022/04/24 10:24:48;;;;;;;9.75;3.53;;;;;;;16.03;54.57;98511.28;5103153;27;20524;-52
2022/04/24 10:27:47;;;;;;;7.20;4.57;;;;;;;15.83;52.61;98491.50;5119619;27;20051;-52
2022/04/24 10:30:34;;;;;;;8.38;4.22;;;;;;;16.14;53.48;98486.75;5120832;27;20698;-51
2022/04/24 10:33:22;;;;;;;4.43;3.30;;;;;;;16.49;54.38;98479.03;5119919;27;20047;-52
2022/04/24 10:36:13;;;;;;;4.50;3.40;;;;;;;16.51;50.77;98473.63;5119500;27;20927;-53
2022/04/24 10:39:01;;;;;;;9.25;3.88;;;;;;;16.32;50.42;98476.75;5120496;27;20057;-52
2022/04/24 10:41:54;;;;;;;6.00;3.80;;;;;;;16.85;50.30;98479.22;5119716;27;20047;-52
2022/04/24 10:44:51;;;;;;;5.22;3.38;;;;;;;16.85;50.87;98477.41;5119146;27;20047;-52
2022/04/24 10:47:48;;;;;;;7.68;4.88;;;;;;;16.97;49.43;98473.06;5120049;27;20058;-52
2022/04/24 10:50:33;;;;;;;5.35;3.65;;;;;;;17.12;49.06;98469.28;5121001;27;20107;-52
2022/04/24 10:53:18;;;;;;;7.18;4.80;;;;;;;17.05;50.95;98452.16;5119737;27;20043;-52
2022/04/24 10:56:04;;;;;;;7.10;4.75;;;;;;;17.23;50.63;98471.16;5118588;27;20054;-52
2022/04/24 10:58:50;;;;;;;8.57;4.68;;;;;;;17.13;50.89;98455.13;5118987;27;20646;-52
2022/04/24 11:01:35;;;;;;;8.35;5.25;;;;;;;17.40;49.15;98457.53;5120025;27;20141;-52
2022/04/24 11:04:22;;;;;;;6.60;4.70;;;;;;;17.69;49.56;98454.50;5120659;27;20501;-52
2022/04/24 11:07:07;;;;;;;6.65;4.50;;;;;;;17.93;48.04;98454.47;5120009;27;20074;-52
2022/04/24 11:10:01;;;;;;;6.93;4.80;;;;;;;18.18;47.77;98445.47;5120235;27;20051;-51
2022/04/24 11:12:48;;;;;;;4.90;3.83;;;;;;;18.71;47.85;98439.56;5119400;27;20825;-51
2022/04/24 11:15:33;;;;;;;7.60;4.30;;;;;;;18.75;46.63;98441.00;5120013;27;20031;-52
2022/04/24 11:18:23;;;;;;;6.68;4.40;;;;;;;18.49;44.39;98435.09;5119309;27;20057;-52
2022/04/24 11:21:09;;;;;;;6.68;4.93;;;;;;;18.16;46.81;98434.97;5120662;27;20051;-52
2022/04/24 11:23:59;;;;;;;7.45;4.82;;;;;;;17.12;47.66;98434.06;5118430;27;20047;-52
2022/04/24 11:26:49;;;;;;;5.72;4.40;;;;;;;17.60;48.46;98431.34;5113966;27;20122;-53
2022/04/24 11:29:34;;;;;;;7.88;5.13;;;;;;;17.71;49.01;98429.59;5117163;27;20043;-52
2022/04/24 11:32:19;;;;;;;6.07;4.50;;;;;;;17.70;47.71;98421.75;5120312;27;20043;-52
2022/04/24 11:35:06;;;;;;;5.05;4.18;;;;;;;17.79;47.02;98418.44;5120523;27;20035;-52
2022/04/24 11:37:51;;;;;;;16.80;9.75;;;;;;;17.95;46.45;98424.25;5119793;27;20973;-53
2022/04/24 11:40:43;;;;;;;4.65;4.18;;;;;;;18.02;45.92;98405.25;5119473;28;20051;-53
2022/04/24 11:43:29;;;;;;;6.20;3.95;;;;;;;17.94;46.13;98408.50;5117813;28;20043;-53
2022/04/24 11:52:20;;;;;;;4.65;3.67;;;;;;;17.78;45.58;98429.13;5118565;28;20373;-51
2022/04/24 11:55:10;;;;;;;10.02;5.63;;;;;;;17.85;45.74;98430.38;5121148;28;20066;-53
2022/04/24 11:57:57;;;;;;;9.25;5.47;;;;;;;17.63;45.05;98426.69;5121056;28;20043;-52
2022/04/24 12:00:42;;;;;;;5.57;3.97;;;;;;;17.40;46.22;98424.91;5121322;27;20051;-51
2022/04/24 12:03:32;;;;;;;6.43;3.97;;;;;;;17.14;47.89;98414.47;5124510;27;20142;-53
2022/04/24 12:06:16;;;;;;;7.65;4.45;;;;;;;17.02;48.56;98412.72;5126360;27;20035;-52
2022/04/24 12:09:08;;;;;;;6.65;4.50;;;;;;;16.90;48.64;98403.91;5125997;27;20497;-52
2022/04/24 12:12:09;;;;;;;7.68;4.20;;;;;;;17.20;47.52;98410.53;5125116;27;20096;-52
2022/04/24 12:14:54;;;;;;;4.20;3.53;;;;;;;17.25;47.22;98403.09;5125345;27;20043;-52
2022/04/24 12:17:47;;;;;;;6.50;4.55;;;;;;;17.24;48.26;98404.06;5125426;27;20059;-53
2022/04/24 12:20:41;;;;;;;8.13;4.55;;;;;;;17.00;48.99;98396.97;5108385;27;20123;-51
2022/04/24 12:23:27;;;;;;;5.90;4.60;;;;;;;17.13;47.97;98390.78;5124567;27;20548;-52
2022/04/24 12:26:11;;;;;;;6.53;5.00;;;;;;;17.09;47.85;98394.59;5123579;27;20078;-51
2022/04/24 12:29:04;;;;;;;6.35;5.03;;;;;;;17.27;47.95;98390.59;5127249;27;20051;-51
2022/04/24 12:31:49;;;;;;;7.93;4.13;;;;;;;17.45;48.83;98398.94;5126726;27;20039;-52
2022/04/24 12:34:38;;;;;;;10.88;5.32;;;;;;;17.61;48.07;98399.47;5108906;27;20220;-52
2022/04/24 12:37:30;;;;;;;9.68;5.22;;;;;;;17.57;46.56;98397.19;5124673;27;20045;-52
2022/04/24 12:40:15;;;;;;;5.95;4.05;;;;;;;17.36;45.95;98394.38;5126296;27;20047;-52
2022/04/24 12:43:00;;;;;;;7.40;5.50;;;;;;;17.13;47.34;98398.72;5126537;27;20047;-52
2022/04/24 12:45:44;;;;;;;6.22;4.05;;;;;;;17.09;46.67;98399.88;5108642;27;20050;-51
2022/04/24 12:48:29;;;;;;;9.48;4.60;;;;;;;17.14;46.72;98397.75;5125477;27;20402;-53
2022/04/24 12:51:15;;;;;;;8.57;4.93;;;;;;;16.82;46.83;98390.38;5125994;27;20055;-52
2022/04/24 12:54:01;;;;;;;9.65;6.55;;;;;;;16.91;45.87;98396.81;5125889;27;20146;-51
2022/04/24 12:56:46;;;;;;;12.60;8.77;;;;;;;16.83;45.00;98386.78;5125052;27;20058;-51
2022/04/24 12:59:32;;;;;;;28.30;17.33;;;;;;;16.79;46.28;98386.16;5125958;27;20071;-52